Temp: 8.9°C   Baro: 1005.8mb
  Wind: 11.0mph   Dir: W (277°)
  Rain: 0.6mm (0.0mm/hr)
  Sun: 0W/m2  Humidity: 93%

Historic data

Bath Spa Weather Station Historical Data
Daily Summary for December 07, 2023 Units:  Both    English   Metric
Daily Weekly Monthly Yearly Custom
  High: Low: Average:
Temperature: 46.8 °F /  8.2 °C 42.3 °F /  5.7 °C 44.7 °F /  7.1 °C
Dew Point: 45.2 °F /  7.3 °C 39.7 °F /  4.3 °C 42.7 °F /  5.9 °C
Humidity: 95% 89% 93%
Wind Speed: 14.2mph /  22.9km/h - 6.1mph /  9.8km/h
Wind Gust: 24mph /  38.6km/h - -
Wind- - SSE
Pressure: 29.91 in /  1012.8 hPa 29.49 in /  998.5 hPa -
Precipitation: 0.13 in /  3.3 mm    
Historical Graphs
 
 
Tabular Data for December 07, 2023
Time Temperature Dew Point Pressure Wind Wind Speed Wind Gust Humidity Rainfall Rate (Hourly) solar
00:09 42.3 °F /  5.7 °C 39.8 °F /  4.3 °C 29.91in /  1012.8hPa SE 5.4mph /  8.7km/h 11mph /  17.7km/h 91.2% 0.01in /  0.25mm 0 W/m2
00:14 42.3 °F /  5.7 °C 39.7 °F /  4.3 °C 29.91in /  1012.8hPa SE 4.4mph /  7.1km/h 14mph /  22.5km/h 91% 0.01in /  0.25mm 0 W/m2
00:19 42.4 °F /  5.8 °C 39.8 °F /  4.3 °C 29.91in /  1012.8hPa SE 6mph /  9.7km/h 12mph /  19.3km/h 91% 0.01in /  0.25mm 0 W/m2
00:24 42.4 °F /  5.8 °C 40.2 °F /  4.6 °C 29.90in /  1012.4hPa ESE 7mph /  11.3km/h 15mph /  24.1km/h 91.8% 0.01in /  0.25mm 0 W/m2
00:29 42.4 °F /  5.8 °C 40.3 °F /  4.6 °C 29.90in /  1012.4hPa ESE 7.8mph /  12.6km/h 15mph /  24.1km/h 92% 0.01in /  0.25mm 0 W/m2
00:34 42.4 °F /  5.8 °C 40.3 °F /  4.6 °C 29.90in /  1012.4hPa SE 7.6mph /  12.2km/h 16mph /  25.7km/h 92% 0.02in /  0.51mm 0 W/m2
00:39 42.4 °F /  5.8 °C 40.3 °F /  4.6 °C 29.89in /  1012.1hPa ESE 6.2mph /  10km/h 13mph /  20.9km/h 92% 0.02in /  0.51mm 0 W/m2
00:44 42.4 °F /  5.8 °C 40.3 °F /  4.6 °C 29.89in /  1012.1hPa ESE 6.9mph /  11.1km/h 14mph /  22.5km/h 92% 0.02in /  0.51mm 0 W/m2
00:49 42.4 °F /  5.8 °C 40.3 °F /  4.6 °C 29.89in /  1012.1hPa SE 6.5mph /  10.5km/h 15mph /  24.1km/h 92% 0.02in /  0.51mm 0 W/m2
00:54 42.4 °F /  5.8 °C 40.3 °F /  4.6 °C 29.89in /  1012.1hPa ESE 5.5mph /  8.9km/h 16mph /  25.7km/h 92% 0.02in /  0.51mm 0 W/m2
00:59 42.4 °F /  5.8 °C 40.3 °F /  4.6 °C 29.88in /  1011.7hPa SE 5.7mph /  9.2km/h 16mph /  25.7km/h 92% 0.03in /  0.76mm 0 W/m2
01:04 42.4 °F /  5.8 °C 40.3 °F /  4.6 °C 29.88in /  1011.7hPa ESE 7.1mph /  11.4km/h 14mph /  22.5km/h 92% 0.03in /  0.76mm 0 W/m2
01:09 42.4 °F /  5.8 °C 40.3 °F /  4.6 °C 29.88in /  1011.7hPa ESE 4.8mph /  7.7km/h 13mph /  20.9km/h 92% 0.03in /  0.76mm 0 W/m2
01:14 42.4 °F /  5.8 °C 40.3 °F /  4.6 °C 29.88in /  1011.7hPa ESE 7.4mph /  11.9km/h 12mph /  19.3km/h 92% 0.03in /  0.76mm 0 W/m2
01:19 42.4 °F /  5.8 °C 40.3 °F /  4.6 °C 29.88in /  1011.7hPa SE 6.4mph /  10.3km/h 15mph /  24.1km/h 92.2% 0.03in /  0.76mm 0 W/m2
01:24 42.4 °F /  5.8 °C 40.6 °F /  4.8 °C 29.88in /  1011.7hPa ESE 8.4mph /  13.5km/h 19mph /  30.6km/h 93% 0.03in /  0.76mm 0 W/m2
01:29 42.4 °F /  5.8 °C 40.6 °F /  4.8 °C 29.88in /  1011.7hPa SE 5.8mph /  9.3km/h 15mph /  24.1km/h 93% 0.03in /  0.76mm 0 W/m2
01:34 42.4 °F /  5.8 °C 40.6 °F /  4.8 °C 29.87in /  1011.4hPa SE 10.2mph /  16.4km/h 16mph /  25.7km/h 93% 0.03in /  0.76mm 0 W/m2
01:39 42.5 °F /  5.8 °C 40.7 °F /  4.8 °C 29.87in /  1011.4hPa ESE 6.8mph /  10.9km/h 16mph /  25.7km/h 93% 0.02in /  0.51mm 0 W/m2
01:44 42.4 °F /  5.8 °C 40.6 °F /  4.8 °C 29.87in /  1011.4hPa ESE 6.8mph /  10.9km/h 15mph /  24.1km/h 93% 0.03in /  0.76mm 0 W/m2
01:49 42.4 °F /  5.8 °C 40.6 °F /  4.8 °C 29.86in /  1011.1hPa SE 6.2mph /  10km/h 13mph /  20.9km/h 93% 0.03in /  0.76mm 0 W/m2
01:54 42.4 °F /  5.8 °C 40.6 °F /  4.8 °C 29.86in /  1011.1hPa ESE 8.8mph /  14.2km/h 15mph /  24.1km/h 93% 0.03in /  0.76mm 0 W/m2
01:59 42.4 °F /  5.8 °C 40.6 °F /  4.8 °C 29.85in /  1010.7hPa SE 6.2mph /  10km/h 15mph /  24.1km/h 93% 0.02in /  0.51mm 0 W/m2
02:04 42.4 °F /  5.8 °C 40.6 °F /  4.8 °C 29.85in /  1010.7hPa ESE 7.8mph /  12.6km/h 15mph /  24.1km/h 93% 0.02in /  0.51mm 0 W/m2
02:09 42.6 °F /  5.9 °C 40.8 °F /  4.9 °C 29.85in /  1010.7hPa SE 6.8mph /  10.9km/h 17mph /  27.4km/h 93% 0.02in /  0.51mm 0 W/m2
02:14 42.6 °F /  5.9 °C 40.8 °F /  4.9 °C 29.85in /  1010.7hPa ESE 9.6mph /  15.4km/h 17mph /  27.4km/h 93% 0.02in /  0.51mm 0 W/m2
02:19 42.6 °F /  5.9 °C 40.8 °F /  4.9 °C 29.85in /  1010.7hPa ESE 6.4mph /  10.3km/h 16mph /  25.7km/h 93% 0.02in /  0.51mm 0 W/m2
02:24 42.7 °F /  5.9 °C 40.9 °F /  4.9 °C 29.85in /  1010.7hPa ESE 8.2mph /  13.2km/h 18mph /  29km/h 93% 0.02in /  0.51mm 0 W/m2
02:29 42.9 °F /  6.1 °C 41.1 °F /  5.1 °C 29.84in /  1010.4hPa SE 5.5mph /  8.9km/h 18mph /  29km/h 93% 0.02in /  0.51mm 0 W/m2
02:34 43 °F /  6.1 °C 41.2 °F /  5.1 °C 29.84in /  1010.4hPa ESE 9mph /  14.5km/h 15mph /  24.1km/h 93% 0.02in /  0.51mm 0 W/m2
02:39 43 °F /  6.1 °C 41.2 °F /  5.1 °C 29.84in /  1010.4hPa ESE 9.8mph /  15.8km/h 16mph /  25.7km/h 93% 0.02in /  0.51mm 0 W/m2
02:44 43 °F /  6.1 °C 41.2 °F /  5.1 °C 29.83in /  1010hPa ESE 9.4mph /  15.1km/h 17mph /  27.4km/h 93% 0.02in /  0.51mm 0 W/m2
02:49 43.1 °F /  6.2 °C 41.3 °F /  5.2 °C 29.83in /  1010hPa SE 10.2mph /  16.4km/h 18mph /  29km/h 93% 0.02in /  0.51mm 0 W/m2
02:54 43.2 °F /  6.2 °C 41.4 °F /  5.2 °C 29.83in /  1010hPa SE 8.2mph /  13.2km/h 19mph /  30.6km/h 93.2% 0.02in /  0.51mm 0 W/m2
02:59 43.3 °F /  6.3 °C 41.5 °F /  5.3 °C 29.83in /  1010hPa SE 8.6mph /  13.8km/h 17mph /  27.4km/h 93% 0.01in /  0.25mm 0 W/m2
03:04 43.3 °F /  6.3 °C 41.5 °F /  5.3 °C 29.83in /  1010hPa ESE 6.2mph /  10km/h 14mph /  22.5km/h 93% 0.01in /  0.25mm 0 W/m2
03:09 43.4 °F /  6.3 °C 41.8 °F /  5.4 °C 29.83in /  1010hPa SE 5.6mph /  9km/h 18mph /  29km/h 93.8% 0.01in /  0.25mm 0 W/m2
03:14 43.6 °F /  6.4 °C 42 °F /  5.6 °C 29.83in /  1010hPa SE 8.6mph /  13.8km/h 19mph /  30.6km/h 94% 0.01in /  0.25mm 0 W/m2
03:19 43.7 °F /  6.5 °C 42.1 °F /  5.6 °C 29.82in /  1009.7hPa SE 8.2mph /  13.2km/h 17mph /  27.4km/h 94% 0.01in /  0.25mm 0 W/m2
03:24 43.9 °F /  6.6 °C 42.3 °F /  5.7 °C 29.82in /  1009.7hPa SE 6mph /  9.7km/h 18mph /  29km/h 94% 0.01in /  0.25mm 0 W/m2
03:29 43.9 °F /  6.6 °C 42.3 °F /  5.7 °C 29.82in /  1009.7hPa SE 6mph /  9.7km/h 15mph /  24.1km/h 94% 0.01in /  0.25mm 0 W/m2
03:34 44.1 °F /  6.7 °C 42.4 °F /  5.8 °C 29.82in /  1009.7hPa SE 9mph /  14.5km/h 13mph /  20.9km/h 94% 0.00in /  0mm 0 W/m2
03:39 44.1 °F /  6.7 °C 42.4 °F /  5.8 °C 29.82in /  1009.7hPa SE 7.4mph /  11.9km/h 17mph /  27.4km/h 94% 0.00in /  0mm 0 W/m2
03:44 44.1 °F /  6.7 °C 42.4 °F /  5.8 °C 29.81in /  1009.4hPa SE 10mph /  16.1km/h 19mph /  30.6km/h 94% 0.00in /  0mm 0 W/m2
03:49 44.2 °F /  6.8 °C 42.6 °F /  5.9 °C 29.81in /  1009.4hPa SE 6.6mph /  10.6km/h 19mph /  30.6km/h 94% 0.00in /  0mm 0 W/m2
03:54 44.2 °F /  6.8 °C 42.6 °F /  5.9 °C 29.80in /  1009hPa SE 6.6mph /  10.6km/h 16mph /  25.7km/h 94% 0.00in /  0mm 0 W/m2
03:59 44.4 °F /  6.9 °C 42.8 °F /  6 °C 29.80in /  1009hPa SE 10.6mph /  17.1km/h 17mph /  27.4km/h 94% 0.00in /  0mm 0 W/m2
04:04 44.4 °F /  6.9 °C 42.8 °F /  6 °C 29.80in /  1009hPa SE 7.8mph /  12.6km/h 19mph /  30.6km/h 94% 0.00in /  0mm 0 W/m2
04:09 44.5 °F /  6.9 °C 42.9 °F /  6.1 °C 29.80in /  1009hPa SE 11.2mph /  18km/h 19mph /  30.6km/h 94% 0.00in /  0mm 0 W/m2
04:14 44.7 °F /  7.1 °C 42.7 °F /  5.9 °C 29.80in /  1009hPa SSE 8.4mph /  13.5km/h 19mph /  30.6km/h 93% 0.00in /  0mm 0 W/m2
04:19 44.8 °F /  7.1 °C 42.8 °F /  6 °C 29.80in /  1009hPa ESE 6.2mph /  10km/h 14mph /  22.5km/h 93% 0.00in /  0mm 0 W/m2
04:24 44.7 °F /  7.1 °C 42.7 °F /  5.9 °C 29.80in /  1009hPa SE 6.2mph /  10km/h 14mph /  22.5km/h 93% 0.00in /  0mm 0 W/m2
04:29 44.8 °F /  7.1 °C 42.8 °F /  6 °C 29.80in /  1009hPa SE 8.8mph /  14.2km/h 17mph /  27.4km/h 93% 0.00in /  0mm 0 W/m2
04:34 45 °F /  7.2 °C 43 °F /  6.1 °C 29.80in /  1009hPa SE 7.5mph /  12.1km/h 17mph /  27.4km/h 93% 0.00in /  0mm 0 W/m2
04:39 44.8 °F /  7.1 °C 42.8 °F /  6 °C 29.80in /  1009hPa SE 6.6mph /  10.6km/h 15mph /  24.1km/h 93% 0.00in /  0mm 0 W/m2
04:44 44.8 °F /  7.1 °C 42.8 °F /  6 °C 29.80in /  1009hPa SE 8mph /  12.9km/h 15mph /  24.1km/h 93% 0.00in /  0mm 0 W/m2
04:49 44.8 °F /  7.1 °C 42.8 °F /  6 °C 29.80in /  1009hPa SE 7mph /  11.3km/h 18mph /  29km/h 93% 0.00in /  0mm 0 W/m2
04:54 44.9 °F /  7.2 °C 42.9 °F /  6.1 °C 29.80in /  1009hPa SE 6.1mph /  9.8km/h 18mph /  29km/h 93% 0.00in /  0mm 0 W/m2
04:59 44.9 °F /  7.2 °C 42.9 °F /  6.1 °C 29.80in /  1009hPa East 7.8mph /  12.6km/h 16mph /  25.7km/h 93% 0.00in /  0mm 0 W/m2
05:04 45 °F /  7.2 °C 43 °F /  6.1 °C 29.80in /  1009hPa SE 5.4mph /  8.7km/h 14mph /  22.5km/h 93% 0.00in /  0mm 0 W/m2
05:09 44.8 °F /  7.1 °C 42.7 °F /  5.9 °C 29.80in /  1009hPa SE 6mph /  9.7km/h 12mph /  19.3km/h 92.4% 0.00in /  0mm 0 W/m2
05:14 44.8 °F /  7.1 °C 42.6 °F /  5.9 °C 29.79in /  1008.7hPa SE 7.8mph /  12.6km/h 13mph /  20.9km/h 92.2% 0.00in /  0mm 0 W/m2
05:19 44.8 °F /  7.1 °C 42.6 °F /  5.9 °C 29.80in /  1009hPa ESE 7mph /  11.3km/h 17mph /  27.4km/h 92% 0.00in /  0mm 0 W/m2
05:24 44.8 °F /  7.1 °C 42.6 °F /  5.9 °C 29.79in /  1008.7hPa ESE 6mph /  9.7km/h 14mph /  22.5km/h 92% 0.00in /  0mm 0 W/m2
05:29 44.8 °F /  7.1 °C 42.6 °F /  5.9 °C 29.79in /  1008.7hPa SE 7.6mph /  12.2km/h 12mph /  19.3km/h 92% 0.00in /  0mm 0 W/m2
05:34 44.8 °F /  7.1 °C 42.6 °F /  5.9 °C 29.79in /  1008.7hPa SE 5.2mph /  8.4km/h 13mph /  20.9km/h 92% 0.00in /  0mm 0 W/m2
05:39 44.8 °F /  7.1 °C 42.6 °F /  5.9 °C 29.79in /  1008.7hPa SE 8.4mph /  13.5km/h 17mph /  27.4km/h 92% 0.00in /  0mm 0 W/m2
05:44 44.8 °F /  7.1 °C 42.6 °F /  5.9 °C 29.79in /  1008.7hPa ESE 9.6mph /  15.4km/h 19mph /  30.6km/h 92% 0.00in /  0mm 0 W/m2
05:49 44.9 °F /  7.2 °C 42.7 °F /  5.9 °C 29.78in /  1008.4hPa ESE 9.9mph /  15.9km/h 19mph /  30.6km/h 92% 0.00in /  0mm 0 W/m2
05:54 44.8 °F /  7.1 °C 42.6 °F /  5.9 °C 29.78in /  1008.4hPa SE 8mph /  12.9km/h 17mph /  27.4km/h 92% 0.00in /  0mm 0 W/m2
05:59 44.9 °F /  7.2 °C 42.6 °F /  5.9 °C 29.78in /  1008.4hPa SE 6.8mph /  10.9km/h 12mph /  19.3km/h 91.6% 0.00in /  0mm 0 W/m2
06:04 45 °F /  7.2 °C 42.4 °F /  5.8 °C 29.77in /  1008hPa SE 9.2mph /  14.8km/h 17mph /  27.4km/h 91% 0.00in /  0mm 0 W/m2
06:09 45 °F /  7.2 °C 42.4 °F /  5.8 °C 29.77in /  1008hPa SSE 8.8mph /  14.2km/h 16mph /  25.7km/h 91% 0.00in /  0mm 0 W/m2
06:14 44.8 °F /  7.1 °C 42.3 °F /  5.7 °C 29.77in /  1008hPa SE 6.8mph /  10.9km/h 15mph /  24.1km/h 91% 0.00in /  0mm 0 W/m2
06:19 44.8 °F /  7.1 °C 42.3 °F /  5.7 °C 29.76in /  1007.7hPa SE 8.8mph /  14.2km/h 19mph /  30.6km/h 91% 0.00in /  0mm 0 W/m2
06:24 44.8 °F /  7.1 °C 42.3 °F /  5.7 °C 29.77in /  1008hPa SE 6.9mph /  11.1km/h 14mph /  22.5km/h 91% 0.00in /  0mm 0 W/m2
06:29 44.8 °F /  7.1 °C 42.3 °F /  5.7 °C 29.77in /  1008hPa ESE 5.3mph /  8.5km/h 19mph /  30.6km/h 91% 0.00in /  0mm 0 W/m2
06:34 44.8 °F /  7.1 °C 42.3 °F /  5.7 °C 29.77in /  1008hPa ESE 7.8mph /  12.6km/h 15mph /  24.1km/h 91% 0.00in /  0mm 0 W/m2
06:39 44.6 °F /  7 °C 42.1 °F /  5.6 °C 29.76in /  1007.7hPa SE 6mph /  9.7km/h 18mph /  29km/h 91% 0.00in /  0mm 0 W/m2
06:44 44.6 °F /  7 °C 42.1 °F /  5.6 °C 29.76in /  1007.7hPa SE 4.9mph /  7.9km/h 11mph /  17.7km/h 91% 0.00in /  0mm 0 W/m2
06:49 44.6 °F /  7 °C 42.1 °F /  5.6 °C 29.76in /  1007.7hPa ESE 7mph /  11.3km/h 12mph /  19.3km/h 91% 0.00in /  0mm 0 W/m2
06:54 44.6 °F /  7 °C 42.1 °F /  5.6 °C 29.76in /  1007.7hPa SE 5.7mph /  9.2km/h 11mph /  17.7km/h 91% 0.00in /  0mm 0 W/m2
06:59 44.7 °F /  7.1 °C 42.2 °F /  5.7 °C 29.76in /  1007.7hPa SE 5mph /  8km/h 17mph /  27.4km/h 91% 0.00in /  0mm 0 W/m2
07:04 44.8 °F /  7.1 °C 42.3 °F /  5.7 °C 29.76in /  1007.7hPa ESE 9mph /  14.5km/h 19mph /  30.6km/h 91% 0.00in /  0mm 0 W/m2
07:09 44.8 °F /  7.1 °C 42.3 °F /  5.7 °C 29.75in /  1007.3hPa ESE 6.2mph /  10km/h 19mph /  30.6km/h 91% 0.00in /  0mm 0 W/m2
07:14 44.9 °F /  7.2 °C 42.3 °F /  5.7 °C 29.76in /  1007.7hPa ESE 6.3mph /  10.1km/h 14mph /  22.5km/h 91% 0.00in /  0mm 0 W/m2
07:19 45 °F /  7.2 °C 42.4 °F /  5.8 °C 29.75in /  1007.3hPa SE 6.4mph /  10.3km/h 11mph /  17.7km/h 91% 0.00in /  0mm 0 W/m2
07:24 45.1 °F /  7.3 °C 42.6 °F /  5.9 °C 29.75in /  1007.3hPa SE 10.4mph /  16.7km/h 20mph /  32.2km/h 91% 0.00in /  0mm 0 W/m2
07:29 45.1 °F /  7.3 °C 42.6 °F /  5.9 °C 29.75in /  1007.3hPa SSE 8.5mph /  13.7km/h 18mph /  29km/h 91% 0.00in /  0mm 0 W/m2
07:34 45.1 °F /  7.3 °C 42.6 °F /  5.9 °C 29.75in /  1007.3hPa SE 7mph /  11.3km/h 19mph /  30.6km/h 91% 0.00in /  0mm 0 W/m2
07:39 45.2 °F /  7.3 °C 42.7 °F /  5.9 °C 29.75in /  1007.3hPa SE 10mph /  16.1km/h 20mph /  32.2km/h 91% 0.00in /  0mm 0 W/m2
07:44 45.3 °F /  7.4 °C 42.8 °F /  6 °C 29.75in /  1007.3hPa SE 9.6mph /  15.4km/h 20mph /  32.2km/h 91% 0.00in /  0mm 0 W/m2
07:49 45.3 °F /  7.4 °C 42.8 °F /  6 °C 29.74in /  1007hPa SE 9.2mph /  14.8km/h 19mph /  30.6km/h 90.8% 0.00in /  0mm 0 W/m2
07:54 45.3 °F /  7.4 °C 42.6 °F /  5.9 °C 29.74in /  1007hPa SSE 10.8mph /  17.4km/h 16mph /  25.7km/h 90% 0.00in /  0mm 0 W/m2
07:59 45.3 °F /  7.4 °C 42.6 °F /  5.9 °C 29.74in /  1007hPa SE 8.8mph /  14.2km/h 15mph /  24.1km/h 90% 0.00in /  0mm 0 W/m2
08:04 45.1 °F /  7.3 °C 42.4 °F /  5.8 °C 29.74in /  1007hPa SE 11.6mph /  18.7km/h 21mph /  33.8km/h 90% 0.00in /  0mm 0 W/m2
08:09 45.3 °F /  7.4 °C 42.6 °F /  5.9 °C 29.73in /  1006.7hPa SE 11.9mph /  19.2km/h 21mph /  33.8km/h 90% 0.00in /  0mm 0 W/m2
08:14 45.3 °F /  7.4 °C 42.6 °F /  5.9 °C 29.74in /  1007hPa SE 9mph /  14.5km/h 17mph /  27.4km/h 90% 0.00in /  0mm 0 W/m2
08:19 45.3 °F /  7.4 °C 42.6 °F /  5.9 °C 29.73in /  1006.7hPa SSE 8.3mph /  13.4km/h 21mph /  33.8km/h 90% 0.00in /  0mm 0 W/m2
08:24 45.3 °F /  7.4 °C 42.6 °F /  5.9 °C 29.73in /  1006.7hPa SE 7mph /  11.3km/h 18mph /  29km/h 90% 0.00in /  0mm 0 W/m2
08:29 45.2 °F /  7.3 °C 42.5 °F /  5.8 °C 29.73in /  1006.7hPa SE 8.8mph /  14.2km/h 16mph /  25.7km/h 90% 0.00in /  0mm 0 W/m2
08:34 45.2 °F /  7.3 °C 42.5 °F /  5.8 °C 29.72in /  1006.3hPa SE 8mph /  12.9km/h 17mph /  27.4km/h 90% 0.00in /  0mm 0 W/m2
08:39 45.1 °F /  7.3 °C 42.4 °F /  5.8 °C 29.72in /  1006.3hPa SE 7.4mph /  11.9km/h 17mph /  27.4km/h 90% 0.00in /  0mm 0 W/m2
08:44 45.1 °F /  7.3 °C 42.4 °F /  5.8 °C 29.72in /  1006.3hPa SE 11.8mph /  19km/h 20mph /  32.2km/h 90% 0.00in /  0mm 5 W/m2
08:48 45.1 °F /  7.3 °C 42.6 °F /  5.9 °C 29.72in /  1006.3hPa SSE 8.7mph /  14km/h 15mph /  24.1km/h 90.8% 0.00in /  0mm 5 W/m2
08:54 45 °F /  7.2 °C 42.4 °F /  5.8 °C 29.72in /  1006.3hPa ESE 9.8mph /  15.8km/h 16mph /  25.7km/h 91% 0.00in /  0mm 5 W/m2
08:59 45 °F /  7.2 °C 42.4 °F /  5.8 °C 29.71in /  1006hPa SE 7.1mph /  11.4km/h 16mph /  25.7km/h 91% 0.00in /  0mm 7 W/m2
09:04 45 °F /  7.2 °C 42.4 °F /  5.8 °C 29.71in /  1006hPa SE 7.8mph /  12.6km/h 16mph /  25.7km/h 91% 0.00in /  0mm 9 W/m2
09:09 45 °F /  7.2 °C 42.4 °F /  5.8 °C 29.71in /  1006hPa SE 7.5mph /  12.1km/h 17mph /  27.4km/h 91% 0.00in /  0mm 14 W/m2
09:14 44.8 °F /  7.1 °C 42.3 °F /  5.7 °C 29.71in /  1006hPa SSE 10.6mph /  17.1km/h 22mph /  35.4km/h 91% 0.00in /  0mm 14 W/m2
09:19 44.8 °F /  7.1 °C 42.3 °F /  5.7 °C 29.71in /  1006hPa SSE 9mph /  14.5km/h 21mph /  33.8km/h 91% 0.00in /  0mm 16 W/m2
09:24 44.8 °F /  7.1 °C 42.3 °F /  5.7 °C 29.71in /  1006hPa ESE 9.4mph /  15.1km/h 17mph /  27.4km/h 91% 0.00in /  0mm 16 W/m2
09:29 44.8 °F /  7.1 °C 42.3 °F /  5.7 °C 29.70in /  1005.6hPa SE 7.5mph /  12.1km/h 17mph /  27.4km/h 91% 0.00in /  0mm 14 W/m2
09:34 44.6 °F /  7 °C 42.1 °F /  5.6 °C 29.70in /  1005.6hPa SE 8.4mph /  13.5km/h 14mph /  22.5km/h 91% 0.00in /  0mm 16 W/m2
09:39 44.5 °F /  6.9 °C 42 °F /  5.6 °C 29.70in /  1005.6hPa ESE 10.6mph /  17.1km/h 18mph /  29km/h 91% 0.00in /  0mm 19 W/m2
09:44 44.4 °F /  6.9 °C 41.9 °F /  5.5 °C 29.69in /  1005.3hPa SE 9mph /  14.5km/h 17mph /  27.4km/h 91% 0.00in /  0mm 25 W/m2
09:49 44.4 °F /  6.9 °C 41.9 °F /  5.5 °C 29.69in /  1005.3hPa ESE 7.5mph /  12.1km/h 18mph /  29km/h 91% 0.00in /  0mm 28 W/m2
09:54 44.4 °F /  6.9 °C 41.9 °F /  5.5 °C 29.68in /  1005hPa SE 9.2mph /  14.8km/h 19mph /  30.6km/h 91% 0.00in /  0mm 32 W/m2
09:59 44.4 °F /  6.9 °C 41.9 °F /  5.5 °C 29.68in /  1005hPa SE 10.2mph /  16.4km/h 19mph /  30.6km/h 91% 0.00in /  0mm 35 W/m2
10:04 44.4 °F /  6.9 °C 41.8 °F /  5.4 °C 29.68in /  1005hPa ESE 12.6mph /  20.3km/h 24mph /  38.6km/h 90.4% 0.00in /  0mm 33 W/m2
10:09 44.4 °F /  6.9 °C 41.7 °F /  5.4 °C 29.69in /  1005.3hPa SSE 8.4mph /  13.5km/h 17mph /  27.4km/h 90% 0.00in /  0mm 28 W/m2
10:14 44.4 °F /  6.9 °C 41.7 °F /  5.4 °C 29.69in /  1005.3hPa SSE 6.4mph /  10.3km/h 14mph /  22.5km/h 90% 0.00in /  0mm 19 W/m2
10:19 44.3 °F /  6.8 °C 41.6 °F /  5.3 °C 29.69in /  1005.3hPa ESE 8.2mph /  13.2km/h 14mph /  22.5km/h 90% 0.00in /  0mm 23 W/m2
10:24 44.2 °F /  6.8 °C 41.4 °F /  5.2 °C 29.69in /  1005.3hPa ESE 13.6mph /  21.9km/h 24mph /  38.6km/h 89.6% 0.00in /  0mm 25 W/m2
10:29 44.2 °F /  6.8 °C 41.2 °F /  5.1 °C 29.69in /  1005.3hPa ESE 8.8mph /  14.2km/h 24mph /  38.6km/h 89% 0.00in /  0mm 21 W/m2
10:34 44.2 °F /  6.8 °C 41.2 °F /  5.1 °C 29.69in /  1005.3hPa SE 11.5mph /  18.5km/h 19mph /  30.6km/h 89% 0.00in /  0mm 25 W/m2
10:39 44.2 °F /  6.8 °C 41.2 °F /  5.1 °C 29.68in /  1005hPa SE 8mph /  12.9km/h 22mph /  35.4km/h 89% 0.00in /  0mm 21 W/m2
10:44 44.2 °F /  6.8 °C 41.2 °F /  5.1 °C 29.68in /  1005hPa SE 10.1mph /  16.3km/h 20mph /  32.2km/h 89% 0.00in /  0mm 23 W/m2
10:49 44.2 °F /  6.8 °C 41.2 °F /  5.1 °C 29.69in /  1005.3hPa SE 11.8mph /  19km/h 23mph /  37km/h 89% 0.00in /  0mm 26 W/m2
10:54 44.1 °F /  6.7 °C 41.1 °F /  5.1 °C 29.68in /  1005hPa ESE 9mph /  14.5km/h 24mph /  38.6km/h 89% 0.00in /  0mm 26 W/m2
10:59 44.1 °F /  6.7 °C 41 °F /  5 °C 29.67in /  1004.6hPa SE 8.2mph /  13.2km/h 24mph /  38.6km/h 89% 0.00in /  0mm 26 W/m2
11:04 44.1 °F /  6.7 °C 41.2 °F /  5.1 °C 29.67in /  1004.6hPa SE 9.8mph /  15.8km/h 20mph /  32.2km/h 89.6% 0.00in /  0mm 30 W/m2
11:09 44.1 °F /  6.7 °C 41.4 °F /  5.2 °C 29.67in /  1004.6hPa SE 10.5mph /  16.9km/h 20mph /  32.2km/h 90% 0.00in /  0mm 30 W/m2
11:14 44.2 °F /  6.8 °C 41.5 °F /  5.3 °C 29.66in /  1004.3hPa SE 12.8mph /  20.6km/h 22mph /  35.4km/h 90% 0.00in /  0mm 35 W/m2
11:19 44.2 °F /  6.8 °C 41.5 °F /  5.3 °C 29.66in /  1004.3hPa SE 9.6mph /  15.4km/h 20mph /  32.2km/h 90% 0.00in /  0mm 44 W/m2
11:24 44.3 °F /  6.8 °C 41.6 °F /  5.3 °C 29.65in /  1003.9hPa SE 14.2mph /  22.9km/h 24mph /  38.6km/h 90% 0.00in /  0mm 44 W/m2
11:29 44.4 °F /  6.9 °C 41.7 °F /  5.4 °C 29.65in /  1003.9hPa SE 9.7mph /  15.6km/h 19mph /  30.6km/h 90% 0.00in /  0mm 44 W/m2
11:34 44.4 °F /  6.9 °C 41.9 °F /  5.5 °C 29.65in /  1003.9hPa SE 10.2mph /  16.4km/h 19mph /  30.6km/h 91% 0.00in /  0mm 37 W/m2
11:39 44.3 °F /  6.8 °C 41.8 °F /  5.4 °C 29.65in /  1003.9hPa SE 10mph /  16.1km/h 20mph /  32.2km/h 91% 0.00in /  0mm 40 W/m2
11:44 44.4 °F /  6.9 °C 41.9 °F /  5.5 °C 29.65in /  1003.9hPa ESE 11mph /  17.7km/h 21mph /  33.8km/h 91% 0.00in /  0mm 40 W/m2
11:48 44.3 °F /  6.8 °C 41.8 °F /  5.4 °C 29.65in /  1003.9hPa SE 8.5mph /  13.7km/h 17mph /  27.4km/h 91% 0.00in /  0mm 40 W/m2
11:54 44.4 °F /  6.9 °C 41.9 °F /  5.5 °C 29.65in /  1003.9hPa SE 9.2mph /  14.8km/h 17mph /  27.4km/h 91% 0.00in /  0mm 35 W/m2
11:59 44.4 °F /  6.9 °C 41.9 °F /  5.5 °C 29.64in /  1003.6hPa SE 7.6mph /  12.2km/h 16mph /  25.7km/h 91% 0.00in /  0mm 35 W/m2
12:04 44.4 °F /  6.9 °C 42.1 °F /  5.6 °C 29.64in /  1003.6hPa SE 9.4mph /  15.1km/h 16mph /  25.7km/h 91.4% 0.00in /  0mm 37 W/m2
12:09 44.4 °F /  6.9 °C 42.3 °F /  5.7 °C 29.63in /  1003.3hPa SE 8.2mph /  13.2km/h 17mph /  27.4km/h 92% 0.01in /  0.25mm 39 W/m2
12:14 44.6 °F /  7 °C 42.4 °F /  5.8 °C 29.63in /  1003.3hPa SE 9.2mph /  14.8km/h 17mph /  27.4km/h 92% 0.01in /  0.25mm 44 W/m2
12:19 44.6 °F /  7 °C 42.4 °F /  5.8 °C 29.62in /  1002.9hPa SE 7.8mph /  12.6km/h 14mph /  22.5km/h 92% 0.01in /  0.25mm 46 W/m2
12:24 44.6 °F /  7 °C 42.4 °F /  5.8 °C 29.62in /  1002.9hPa SE 11.5mph /  18.5km/h 19mph /  30.6km/h 92% 0.01in /  0.25mm 35 W/m2
12:29 44.6 °F /  7 °C 42.4 °F /  5.8 °C 29.62in /  1002.9hPa SE 10.2mph /  16.4km/h 18mph /  29km/h 92% 0.01in /  0.25mm 37 W/m2
12:34 44.6 °F /  7 °C 42.4 °F /  5.8 °C 29.62in /  1002.9hPa ESE 8.6mph /  13.8km/h 17mph /  27.4km/h 92% 0.01in /  0.25mm 35 W/m2
12:39 44.6 °F /  7 °C 42.4 °F /  5.8 °C 29.61in /  1002.6hPa ESE 9.2mph /  14.8km/h 17mph /  27.4km/h 92% 0.01in /  0.25mm 39 W/m2
12:44 44.6 °F /  7 °C 42.4 °F /  5.8 °C 29.61in /  1002.6hPa SE 9mph /  14.5km/h 19mph /  30.6km/h 92% 0.01in /  0.25mm 39 W/m2
12:49 44.6 °F /  7 °C 42.4 °F /  5.8 °C 29.60in /  1002.3hPa SE 8.8mph /  14.2km/h 17mph /  27.4km/h 92% 0.01in /  0.25mm 40 W/m2
12:54 44.5 °F /  6.9 °C 42.4 °F /  5.8 °C 29.60in /  1002.3hPa SE 5.3mph /  8.5km/h 18mph /  29km/h 92% 0.01in /  0.25mm 42 W/m2
12:59 44.6 °F /  7 °C 42.4 °F /  5.8 °C 29.60in /  1002.3hPa SE 8.2mph /  13.2km/h 15mph /  24.1km/h 92% 0.01in /  0.25mm 46 W/m2
13:04 44.6 °F /  7 °C 42.4 °F /  5.8 °C 29.60in /  1002.3hPa SE 9.9mph /  15.9km/h 16mph /  25.7km/h 92% 0.01in /  0.25mm 42 W/m2
13:09 44.6 °F /  7 °C 42.4 °F /  5.8 °C 29.59in /  1001.9hPa ESE 8.4mph /  13.5km/h 17mph /  27.4km/h 92% 0.01in /  0.25mm 40 W/m2
13:14 44.7 °F /  7.1 °C 42.5 °F /  5.8 °C 29.59in /  1001.9hPa ESE 6.8mph /  10.9km/h 19mph /  30.6km/h 92% 0.00in /  0mm 35 W/m2
13:19 44.6 °F /  7 °C 42.4 °F /  5.8 °C 29.59in /  1001.9hPa SE 8.6mph /  13.8km/h 17mph /  27.4km/h 92% 0.00in /  0mm 32 W/m2
13:24 44.7 °F /  7.1 °C 42.5 °F /  5.8 °C 29.59in /  1001.9hPa SE 7.4mph /  11.9km/h 17mph /  27.4km/h 92% 0.00in /  0mm 28 W/m2
13:29 44.6 °F /  7 °C 42.4 °F /  5.8 °C 29.59in /  1001.9hPa SE 7.9mph /  12.7km/h 14mph /  22.5km/h 92% 0.00in /  0mm 26 W/m2
13:34 44.6 °F /  7 °C 42.4 °F /  5.8 °C 29.58in /  1001.6hPa SE 8.6mph /  13.8km/h 15mph /  24.1km/h 92% 0.00in /  0mm 25 W/m2
13:39 44.8 °F /  7.1 °C 42.6 °F /  5.9 °C 29.58in /  1001.6hPa ESE 8.8mph /  14.2km/h 19mph /  30.6km/h 92% 0.01in /  0.25mm 19 W/m2
13:44 44.8 °F /  7.1 °C 42.6 °F /  5.9 °C 29.58in /  1001.6hPa SE 5.9mph /  9.5km/h 18mph /  29km/h 92% 0.01in /  0.25mm 19 W/m2
13:49 44.7 °F /  7.1 °C 42.5 °F /  5.8 °C 29.57in /  1001.2hPa SE 6.6mph /  10.6km/h 18mph /  29km/h 92% 0.01in /  0.25mm 23 W/m2
13:54 44.6 °F /  7 °C 42.4 °F /  5.8 °C 29.57in /  1001.2hPa SE 6.4mph /  10.3km/h 18mph /  29km/h 92% 0.02in /  0.51mm 25 W/m2
13:59 44.5 °F /  6.9 °C 42.3 °F /  5.7 °C 29.56in /  1000.9hPa SE 7.6mph /  12.2km/h 17mph /  27.4km/h 92% 0.02in /  0.51mm 21 W/m2
14:04 44.4 °F /  6.9 °C 42.3 °F /  5.7 °C 29.54in /  1000.2hPa SE 8.2mph /  13.2km/h 18mph /  29km/h 92.2% 0.02in /  0.51mm 25 W/m2
14:09 44.4 °F /  6.9 °C 42.3 °F /  5.7 °C 29.52in /  999.5hPa SE 13.4mph /  21.6km/h 21mph /  33.8km/h 92.4% 0.02in /  0.51mm 32 W/m2
14:14 44.4 °F /  6.9 °C 42.4 °F /  5.8 °C 29.54in /  1000.2hPa SE 9.1mph /  14.6km/h 20mph /  32.2km/h 93% 0.02in /  0.51mm 33 W/m2
14:19 44.5 °F /  6.9 °C 42.5 °F /  5.8 °C 29.54in /  1000.2hPa SE 7.5mph /  12.1km/h 14mph /  22.5km/h 93% 0.02in /  0.51mm 18 W/m2
14:24 44.5 °F /  6.9 °C 42.5 °F /  5.8 °C 29.54in /  1000.2hPa ESE 6.6mph /  10.6km/h 15mph /  24.1km/h 93% 0.02in /  0.51mm 12 W/m2
14:29 44.6 °F /  7 °C 42.6 °F /  5.9 °C 29.54in /  1000.2hPa SE 6.6mph /  10.6km/h 14mph /  22.5km/h 93% 0.02in /  0.51mm 11 W/m2
14:34 44.6 °F /  7 °C 42.6 °F /  5.9 °C 29.54in /  1000.2hPa ESE 5.9mph /  9.5km/h 19mph /  30.6km/h 93% 0.02in /  0.51mm 9 W/m2
14:39 44.8 °F /  7.1 °C 42.8 °F /  6 °C 29.53in /  999.9hPa SE 5.5mph /  8.9km/h 19mph /  30.6km/h 93% 0.02in /  0.51mm 9 W/m2
14:44 44.8 °F /  7.1 °C 42.8 °F /  6 °C 29.53in /  999.9hPa SE 6.2mph /  10km/h 13mph /  20.9km/h 93% 0.02in /  0.51mm 9 W/m2
14:49 44.8 °F /  7.1 °C 42.8 °F /  6 °C 29.53in /  999.9hPa SE 5.7mph /  9.2km/h 13mph /  20.9km/h 93% 0.02in /  0.51mm 9 W/m2
14:54 44.8 °F /  7.1 °C 42.8 °F /  6 °C 29.52in /  999.5hPa SE 9.6mph /  15.4km/h 14mph /  22.5km/h 93% 0.02in /  0.51mm 11 W/m2
14:59 44.8 °F /  7.1 °C 42.8 °F /  6 °C 29.52in /  999.5hPa SE 5.6mph /  9km/h 16mph /  25.7km/h 93% 0.02in /  0.51mm 11 W/m2
15:04 44.8 °F /  7.1 °C 42.8 °F /  6 °C 29.52in /  999.5hPa SE 5.5mph /  8.9km/h 14mph /  22.5km/h 93% 0.02in /  0.51mm 9 W/m2
15:09 44.8 °F /  7.1 °C 42.8 °F /  6 °C 29.52in /  999.5hPa SE 7.4mph /  11.9km/h 14mph /  22.5km/h 93% 0.02in /  0.51mm 9 W/m2
15:14 44.8 °F /  7.1 °C 42.8 °F /  6 °C 29.52in /  999.5hPa SE 6.4mph /  10.3km/h 14mph /  22.5km/h 93% 0.01in /  0.25mm 7 W/m2
15:19 44.9 °F /  7.2 °C 43 °F /  6.1 °C 29.52in /  999.5hPa SE 5.4mph /  8.7km/h 14mph /  22.5km/h 93.2% 0.02in /  0.51mm 9 W/m2
15:24 45 °F /  7.2 °C 43.3 °F /  6.3 °C 29.52in /  999.5hPa SE 7.4mph /  11.9km/h 16mph /  25.7km/h 94% 0.02in /  0.51mm 5 W/m2
15:29 45 °F /  7.2 °C 43.3 °F /  6.3 °C 29.51in /  999.2hPa SSE 6.3mph /  10.1km/h 16mph /  25.7km/h 94% 0.02in /  0.51mm 5 W/m2
15:34 45 °F /  7.2 °C 43.3 °F /  6.3 °C 29.51in /  999.2hPa SE 6.4mph /  10.3km/h 16mph /  25.7km/h 94% 0.02in /  0.51mm 5 W/m2
15:39 45 °F /  7.2 °C 43.3 °F /  6.3 °C 29.51in /  999.2hPa SE 7.1mph /  11.4km/h 12mph /  19.3km/h 94% 0.02in /  0.51mm 5 W/m2
15:44 45 °F /  7.2 °C 43.4 °F /  6.3 °C 29.51in /  999.2hPa ESE 5.3mph /  8.5km/h 13mph /  20.9km/h 94% 0.02in /  0.51mm 5 W/m2
15:49 45.1 °F /  7.3 °C 43.5 °F /  6.4 °C 29.50in /  998.9hPa SE 5.3mph /  8.5km/h 16mph /  25.7km/h 94% 0.02in /  0.51mm 0 W/m2
15:54 45.1 °F /  7.3 °C 43.5 °F /  6.4 °C 29.50in /  998.9hPa SE 6.4mph /  10.3km/h 13mph /  20.9km/h 94% 0.03in /  0.76mm 0 W/m2
15:59 45.1 °F /  7.3 °C 43.5 °F /  6.4 °C 29.50in /  998.9hPa SSE 5.4mph /  8.7km/h 13mph /  20.9km/h 94% 0.03in /  0.76mm 0 W/m2
16:04 45.1 °F /  7.3 °C 43.5 °F /  6.4 °C 29.50in /  998.9hPa SE 5.2mph /  8.4km/h 13mph /  20.9km/h 94% 0.02in /  0.51mm 0 W/m2
16:09 45.2 °F /  7.3 °C 43.6 °F /  6.4 °C 29.50in /  998.9hPa SE 6.8mph /  10.9km/h 12mph /  19.3km/h 94% 0.02in /  0.51mm 0 W/m2
16:14 45.3 °F /  7.4 °C 43.7 °F /  6.5 °C 29.50in /  998.9hPa SE 4.9mph /  7.9km/h 10mph /  16.1km/h 94% 0.02in /  0.51mm 0 W/m2
16:19 45.3 °F /  7.4 °C 43.7 °F /  6.5 °C 29.50in /  998.9hPa SE 5.4mph /  8.7km/h 11mph /  17.7km/h 94% 0.02in /  0.51mm 0 W/m2
16:24 45.3 °F /  7.4 °C 43.7 °F /  6.5 °C 29.50in /  998.9hPa SSE 5.3mph /  8.5km/h 9mph /  14.5km/h 94% 0.02in /  0.51mm 0 W/m2
16:29 45.5 °F /  7.5 °C 43.9 °F /  6.6 °C 29.50in /  998.9hPa SSE 4.4mph /  7.1km/h 10mph /  16.1km/h 94% 0.02in /  0.51mm 0 W/m2
16:34 45.7 °F /  7.6 °C 44.1 °F /  6.7 °C 29.50in /  998.9hPa SE 7.6mph /  12.2km/h 14mph /  22.5km/h 94% 0.02in /  0.51mm 0 W/m2
16:39 45.7 °F /  7.6 °C 44.1 °F /  6.7 °C 29.50in /  998.9hPa SE 9.2mph /  14.8km/h 15mph /  24.1km/h 94% 0.01in /  0.25mm 0 W/m2
16:44 45.8 °F /  7.7 °C 44.1 °F /  6.7 °C 29.50in /  998.9hPa SSE 6.6mph /  10.6km/h 13mph /  20.9km/h 94% 0.01in /  0.25mm 0 W/m2
16:49 45.9 °F /  7.7 °C 44.2 °F /  6.8 °C 29.50in /  998.9hPa SE 5.8mph /  9.3km/h 10mph /  16.1km/h 94% 0.01in /  0.25mm 0 W/m2
16:54 45.9 °F /  7.7 °C 44.2 °F /  6.8 °C 29.50in /  998.9hPa SE 4.8mph /  7.7km/h 9mph /  14.5km/h 94% 0.00in /  0mm 0 W/m2
16:59 45.9 °F /  7.7 °C 44.2 °F /  6.8 °C 29.50in /  998.9hPa SE 5.1mph /  8.2km/h 10mph /  16.1km/h 94% 0.00in /  0mm 0 W/m2
17:04 46 °F /  7.8 °C 44.3 °F /  6.8 °C 29.50in /  998.9hPa SE 5.4mph /  8.7km/h 11mph /  17.7km/h 94% 0.00in /  0mm 0 W/m2
17:09 46 °F /  7.8 °C 44.4 °F /  6.9 °C 29.50in /  998.9hPa SSE 3.3mph /  5.3km/h 9mph /  14.5km/h 94% 0.00in /  0mm 0 W/m2
17:14 46 °F /  7.8 °C 44.4 °F /  6.9 °C 29.50in /  998.9hPa SSE 5.1mph /  8.2km/h 11mph /  17.7km/h 94% 0.00in /  0mm 0 W/m2
17:19 46.2 °F /  7.9 °C 44.6 °F /  7 °C 29.50in /  998.9hPa SE 3.2mph /  5.1km/h 8mph /  12.9km/h 94% 0.00in /  0mm 0 W/m2
17:24 46.2 °F /  7.9 °C 44.6 °F /  7 °C 29.50in /  998.9hPa South 1mph /  1.6km/h 6mph /  9.7km/h 94% 0.00in /  0mm 0 W/m2
17:29 46.2 °F /  7.9 °C 44.6 °F /  7 °C 29.50in /  998.9hPa South 2.4mph /  3.9km/h 4mph /  6.4km/h 94% 0.00in /  0mm 0 W/m2
17:34 46.2 °F /  7.9 °C 44.6 °F /  7 °C 29.50in /  998.9hPa SSE 3.7mph /  6km/h 8mph /  12.9km/h 94% 0.00in /  0mm 0 W/m2
17:39 46.2 °F /  7.9 °C 44.6 °F /  7 °C 29.49in /  998.5hPa SSE 3.4mph /  5.5km/h 7mph /  11.3km/h 94% 0.00in /  0mm 0 W/m2
17:44 46.3 °F /  7.9 °C 44.7 °F /  7.1 °C 29.49in /  998.5hPa SE 3.3mph /  5.3km/h 10mph /  16.1km/h 94% 0.00in /  0mm 0 W/m2
17:49 46.3 °F /  7.9 °C 44.7 °F /  7.1 °C 29.49in /  998.5hPa SSE 1.3mph /  2.1km/h 7mph /  11.3km/h 94% 0.00in /  0mm 0 W/m2
17:54 46.4 °F /  8 °C 44.8 °F /  7.1 °C 29.50in /  998.9hPa SSE 0.9mph /  1.4km/h 4mph /  6.4km/h 94% 0.00in /  0mm 0 W/m2
17:59 46.4 °F /  8 °C 44.8 °F /  7.1 °C 29.50in /  998.9hPa SE 1.2mph /  1.9km/h 4mph /  6.4km/h 94% 0.00in /  0mm 0 W/m2
18:04 46.3 °F /  7.9 °C 44.7 °F /  7.1 °C 29.50in /  998.9hPa East 1mph /  1.6km/h 4mph /  6.4km/h 94% 0.00in /  0mm 0 W/m2
18:09 46.4 °F /  8 °C 44.8 °F /  7.1 °C 29.51in /  999.2hPa East 0.9mph /  1.4km/h 3mph /  4.8km/h 94% 0.00in /  0mm 0 W/m2
18:14 46.8 °F /  8.2 °C 45.2 °F /  7.3 °C 29.51in /  999.2hPa East 1mph /  1.6km/h 3mph /  4.8km/h 94% 0.00in /  0mm 0 W/m2
18:19 46.8 °F /  8.2 °C 45.1 °F /  7.3 °C 29.51in /  999.2hPa SSE 2.9mph /  4.7km/h 5mph /  8km/h 94% 0.00in /  0mm 0 W/m2
18:24 46.7 °F /  8.2 °C 45 °F /  7.2 °C 29.51in /  999.2hPa SSE 1.2mph /  1.9km/h 4mph /  6.4km/h 94% 0.00in /  0mm 0 W/m2
18:29 46.6 °F /  8.1 °C 45 °F /  7.2 °C 29.51in /  999.2hPa SSE 0.8mph /  1.3km/h 3mph /  4.8km/h 94% 0.00in /  0mm 0 W/m2
18:34 46.6 °F /  8.1 °C 45 °F /  7.2 °C 29.51in /  999.2hPa SSE 0.8mph /  1.3km/h 2mph /  3.2km/h 94% 0.00in /  0mm 0 W/m2
18:39 46.6 °F /  8.1 °C 45 °F /  7.2 °C 29.52in /  999.5hPa SSE 1.6mph /  2.6km/h 3mph /  4.8km/h 94% 0.00in /  0mm 0 W/m2
18:44 46.6 °F /  8.1 °C 45 °F /  7.2 °C 29.52in /  999.5hPa SSE 0.9mph /  1.4km/h 3mph /  4.8km/h 94% 0.00in /  0mm 0 W/m2
18:49 46.4 °F /  8 °C 44.8 °F /  7.1 °C 29.52in /  999.5hPa SSE 2.8mph /  4.5km/h 6mph /  9.7km/h 94% 0.00in /  0mm 0 W/m2
18:54 46.4 °F /  8 °C 44.8 °F /  7.1 °C 29.51in /  999.2hPa NW 1.5mph /  2.4km/h 6mph /  9.7km/h 94% 0.00in /  0mm 0 W/m2
18:59 46.5 °F /  8.1 °C 44.9 °F /  7.2 °C 29.51in /  999.2hPa NW 0.4mph /  0.6km/h 2mph /  3.2km/h 94% 0.00in /  0mm 0 W/m2
19:04 46.3 °F /  7.9 °C 44.8 °F /  7.1 °C 29.52in /  999.5hPa Calm     94% 0.00in /  0mm 0 W/m2
19:09 46.2 °F /  7.9 °C 44.6 °F /  7 °C 29.52in /  999.5hPa Calm     94.2% 0.00in /  0mm 0 W/m2
19:14 46.2 °F /  7.9 °C 44.7 °F /  7.1 °C 29.52in /  999.5hPa Calm     94.6% 0.00in /  0mm 0 W/m2
19:19 46.2 °F /  7.9 °C 44.8 °F /  7.1 °C 29.51in /  999.2hPa Calm     95% 0.00in /  0mm 0 W/m2
19:24 46.1 °F /  7.8 °C 44.7 °F /  7.1 °C 29.52in /  999.5hPa Calm     95% 0.00in /  0mm 0 W/m2
19:29 46 °F /  7.8 °C 44.5 °F /  6.9 °C 29.52in /  999.5hPa Calm     94.8% 0.00in /  0mm 0 W/m2
19:34 45.9 °F /  7.7 °C 44.2 °F /  6.8 °C 29.52in /  999.5hPa Calm     94% 0.00in /  0mm 0 W/m2
19:39 45.9 °F /  7.7 °C 44.3 °F /  6.8 °C 29.52in /  999.5hPa NW 1.4mph /  2.3km/h 4mph /  6.4km/h 94.4% 0.00in /  0mm 0 W/m2
19:44 46 °F /  7.8 °C 44.6 °F /  7 °C 29.52in /  999.5hPa NW 1.6mph /  2.6km/h 4mph /  6.4km/h 95% 0.00in /  0mm 0 W/m2
19:49 46.1 °F /  7.8 °C 44.7 °F /  7.1 °C 29.52in /  999.5hPa NW 1.9mph /  3.1km/h 3mph /  4.8km/h 95% 0.00in /  0mm 0 W/m2
19:54 46.2 °F /  7.9 °C 44.8 °F /  7.1 °C 29.52in /  999.5hPa NW 2mph /  3.2km/h 4mph /  6.4km/h 95% 0.00in /  0mm 0 W/m2
19:59 46.2 °F /  7.9 °C 44.8 °F /  7.1 °C 29.52in /  999.5hPa NW 1.3mph /  2.1km/h 3mph /  4.8km/h 95% 0.00in /  0mm 0 W/m2
20:04 46.2 °F /  7.9 °C 44.8 °F /  7.1 °C 29.52in /  999.5hPa NW 1.6mph /  2.6km/h 3mph /  4.8km/h 95% 0.00in /  0mm 0 W/m2
20:09 46.2 °F /  7.9 °C 44.8 °F /  7.1 °C 29.52in /  999.5hPa NW 2.1mph /  3.4km/h 3mph /  4.8km/h 95% 0.00in /  0mm 0 W/m2
20:14 46.2 °F /  7.9 °C 44.8 °F /  7.1 °C 29.52in /  999.5hPa NW 2.4mph /  3.9km/h 4mph /  6.4km/h 95% 0.00in /  0mm 0 W/m2
20:19 46.2 °F /  7.9 °C 44.8 °F /  7.1 °C 29.52in /  999.5hPa NW 2.1mph /  3.4km/h 4mph /  6.4km/h 95% 0.00in /  0mm 0 W/m2
20:24 46.2 °F /  7.9 °C 44.8 °F /  7.1 °C 29.52in /  999.5hPa NW 2.5mph /  4km/h 4mph /  6.4km/h 95% 0.00in /  0mm 0 W/m2
20:29 46.2 °F /  7.9 °C 44.8 °F /  7.1 °C 29.52in /  999.5hPa NW 2.4mph /  3.9km/h 4mph /  6.4km/h 95% 0.00in /  0mm 0 W/m2
20:34 46.2 °F /  7.9 °C 44.8 °F /  7.1 °C 29.52in /  999.5hPa WNW 1.7mph /  2.7km/h 4mph /  6.4km/h 95% 0.00in /  0mm 0 W/m2
20:39 46.2 °F /  7.9 °C 44.8 °F /  7.1 °C 29.52in /  999.5hPa WNW 2mph /  3.2km/h 3mph /  4.8km/h 95% 0.00in /  0mm 0 W/m2
20:44 46.1 °F /  7.8 °C 44.7 °F /  7.1 °C 29.53in /  999.9hPa WNW 2mph /  3.2km/h 4mph /  6.4km/h 95% 0.00in /  0mm 0 W/m2
20:49 46 °F /  7.8 °C 44.6 °F /  7 °C 29.53in /  999.9hPa WNW 2.5mph /  4km/h 4mph /  6.4km/h 95% 0.00in /  0mm 0 W/m2
20:54 46 °F /  7.8 °C 44.6 °F /  7 °C 29.52in /  999.5hPa WNW 2.2mph /  3.5km/h 3mph /  4.8km/h 95% 0.00in /  0mm 0 W/m2
20:59 46 °F /  7.8 °C 44.6 °F /  7 °C 29.52in /  999.5hPa WNW 2.4mph /  3.9km/h 4mph /  6.4km/h 95% 0.00in /  0mm 0 W/m2
21:04 45.9 °F /  7.7 °C 44.5 °F /  6.9 °C 29.53in /  999.9hPa WNW 1.8mph /  2.9km/h 3mph /  4.8km/h 95% 0.00in /  0mm 0 W/m2
21:09 46 °F /  7.8 °C 44.5 °F /  6.9 °C 29.53in /  999.9hPa WNW 1.1mph /  1.8km/h 4mph /  6.4km/h 95% 0.00in /  0mm 0 W/m2
21:14 45.9 °F /  7.7 °C 44.4 °F /  6.9 °C 29.53in /  999.9hPa WNW 0.4mph /  0.6km/h 2mph /  3.2km/h 95% 0.00in /  0mm 0 W/m2
21:19 45.8 °F /  7.7 °C 44.4 °F /  6.9 °C 29.53in /  999.9hPa WNW 1.4mph /  2.3km/h 2mph /  3.2km/h 95% 0.00in /  0mm 0 W/m2
21:24 45.4 °F /  7.4 °C 44.2 °F /  6.8 °C 29.53in /  999.9hPa WNW 1.8mph /  2.9km/h 3mph /  4.8km/h 95% 0.00in /  0mm 0 W/m2
21:29 45.5 °F /  7.5 °C 44.3 °F /  6.8 °C 29.54in /  1000.2hPa WNW 2.1mph /  3.4km/h 4mph /  6.4km/h 95% 0.00in /  0mm 0 W/m2
21:34 45.7 °F /  7.6 °C 44.4 °F /  6.9 °C 29.54in /  1000.2hPa WNW 2mph /  3.2km/h 4mph /  6.4km/h 95% 0.00in /  0mm 0 W/m2
21:39 45.7 °F /  7.6 °C 44.4 °F /  6.9 °C 29.54in /  1000.2hPa WNW 2.1mph /  3.4km/h 4mph /  6.4km/h 95% 0.00in /  0mm 0 W/m2
21:44 45.6 °F /  7.6 °C 44.3 °F /  6.8 °C 29.54in /  1000.2hPa WNW 2mph /  3.2km/h 3mph /  4.8km/h 95% 0.00in /  0mm 0 W/m2
21:49 45.2 °F /  7.3 °C 44 °F /  6.7 °C 29.54in /  1000.2hPa WNW 1.3mph /  2.1km/h 3mph /  4.8km/h 95% 0.00in /  0mm 0 W/m2
21:54 44.9 °F /  7.2 °C 43.7 °F /  6.5 °C 29.54in /  1000.2hPa WNW 1.2mph /  1.9km/h 3mph /  4.8km/h 95% 0.00in /  0mm 0 W/m2
21:59 44.8 °F /  7.1 °C 43.5 °F /  6.4 °C 29.54in /  1000.2hPa WNW 2.5mph /  4km/h 3mph /  4.8km/h 95% 0.00in /  0mm 0 W/m2
22:04 44.8 °F /  7.1 °C 43.5 °F /  6.4 °C 29.54in /  1000.2hPa WNW 1.8mph /  2.9km/h 4mph /  6.4km/h 95% 0.00in /  0mm 0 W/m2
22:09 44.8 °F /  7.1 °C 43.5 °F /  6.4 °C 29.54in /  1000.2hPa West 2.2mph /  3.5km/h 4mph /  6.4km/h 95% 0.00in /  0mm 0 W/m2
22:14 44.9 °F /  7.2 °C 43.6 °F /  6.4 °C 29.54in /  1000.2hPa West 2mph /  3.2km/h 4mph /  6.4km/h 95% 0.00in /  0mm 0 W/m2
22:19 45 °F /  7.2 °C 43.8 °F /  6.6 °C 29.54in /  1000.2hPa West 2.1mph /  3.4km/h 4mph /  6.4km/h 95% 0.00in /  0mm 0 W/m2
22:24 45.1 °F /  7.3 °C 43.9 °F /  6.6 °C 29.54in /  1000.2hPa West 1.9mph /  3.1km/h 4mph /  6.4km/h 95% 0.00in /  0mm 0 W/m2
22:29 45.1 °F /  7.3 °C 43.8 °F /  6.6 °C 29.54in /  1000.2hPa West 2.1mph /  3.4km/h 3mph /  4.8km/h 95% 0.00in /  0mm 0 W/m2
22:34 45 °F /  7.2 °C 43.7 °F /  6.5 °C 29.54in /  1000.2hPa West 2.4mph /  3.9km/h 3mph /  4.8km/h 95% 0.00in /  0mm 0 W/m2
22:39 44.8 °F /  7.1 °C 43.5 °F /  6.4 °C 29.54in /  1000.2hPa West 1.9mph /  3.1km/h 4mph /  6.4km/h 95% 0.00in /  0mm 0 W/m2
22:44 44.8 °F /  7.1 °C 43.5 °F /  6.4 °C 29.54in /  1000.2hPa West 1.3mph /  2.1km/h 4mph /  6.4km/h 95% 0.00in /  0mm 0 W/m2
22:49 44.4 °F /  6.9 °C 43.2 °F /  6.2 °C 29.55in /  1000.6hPa West 2mph /  3.2km/h 3mph /  4.8km/h 95% 0.00in /  0mm 0 W/m2
22:54 44.2 °F /  6.8 °C 43 °F /  6.1 °C 29.55in /  1000.6hPa West 1.8mph /  2.9km/h 3mph /  4.8km/h 95% 0.00in /  0mm 0 W/m2
22:59 44.1 °F /  6.7 °C 42.8 °F /  6 °C 29.55in /  1000.6hPa West 2mph /  3.2km/h 3mph /  4.8km/h 95% 0.00in /  0mm 0 W/m2
23:04 44 °F /  6.7 °C 42.7 °F /  5.9 °C 29.55in /  1000.6hPa West 2.4mph /  3.9km/h 4mph /  6.4km/h 95% 0.00in /  0mm 0 W/m2
23:09 43.9 °F /  6.6 °C 42.6 °F /  5.9 °C 29.55in /  1000.6hPa West 2.2mph /  3.5km/h 4mph /  6.4km/h 95% 0.00in /  0mm 0 W/m2
23:14 43.9 °F /  6.6 °C 42.6 °F /  5.9 °C 29.56in /  1000.9hPa West 2mph /  3.2km/h 5mph /  8km/h 95% 0.00in /  0mm 0 W/m2
23:19 43.8 °F /  6.6 °C 42.5 °F /  5.8 °C 29.56in /  1000.9hPa West 2mph /  3.2km/h 3mph /  4.8km/h 95% 0.00in /  0mm 0 W/m2
23:24 43.7 °F /  6.5 °C 42.4 °F /  5.8 °C 29.56in /  1000.9hPa West 2.5mph /  4km/h 3mph /  4.8km/h 95% 0.00in /  0mm 0 W/m2
23:29 43.8 °F /  6.6 °C 42.5 °F /  5.8 °C 29.56in /  1000.9hPa West 1.6mph /  2.6km/h 3mph /  4.8km/h 95% 0.00in /  0mm 0 W/m2
23:34 43.6 °F /  6.4 °C 42.4 °F /  5.8 °C 29.57in /  1001.2hPa West 1.6mph /  2.6km/h 3mph /  4.8km/h 95% 0.00in /  0mm 0 W/m2
23:39 43.4 °F /  6.3 °C 42.2 °F /  5.7 °C 29.57in /  1001.2hPa West 2mph /  3.2km/h 3mph /  4.8km/h 95% 0.00in /  0mm 0 W/m2
23:44 43.4 °F /  6.3 °C 42.2 °F /  5.7 °C 29.57in /  1001.2hPa West 2.4mph /  3.9km/h 3mph /  4.8km/h 95% 0.00in /  0mm 0 W/m2
23:49 43.5 °F /  6.4 °C 42.3 °F /  5.7 °C 29.57in /  1001.2hPa West 2mph /  3.2km/h 4mph /  6.4km/h 95% 0.00in /  0mm 0 W/m2
23:54 43.4 °F /  6.3 °C 42.2 °F /  5.7 °C 29.57in /  1001.2hPa WNW 2.2mph /  3.5km/h 5mph /  8km/h 95% 0.00in /  0mm 0 W/m2
23:59 43.5 °F /  6.4 °C 42.3 °F /  5.7 °C 29.57in /  1001.2hPa WNW 2.4mph /  3.9km/h 4mph /  6.4km/h 95% 0.00in /  0mm 0 W/m2
Bath Spa Weather
Compliments of Weather Underground - 2 mb